^^
Station Historical Data
 
Daily Summary for February 17, 2019 Units:  Metric    English   Both
« Previous Day
Next Day »
Daily Weekly Monthly Yearly Custom
  Current: High: Low: Average:
Temperature: 20.8 °C -17.8 °C 20.8 °C 21.7 °C
Dew Point: 13.7 °C -17.8 °C 13.6 °C 13.3 °C
Humidity: 64% Humidity% 55% 57%
Wind Speed: 11.1km/h 0km/h 4.7km/h 17.4km/h
Wind Gust: 14.5km/h 0km/h - -
WindSSW - - SSW
Pressure: 1010 hPa 0 hPa 1010 hPa -
Precipitation: 0 mm      
Historical Graphs
 
 
Tabular Data for February 17, 2019
Time Temperature Dew Point Pressure Wind Wind Speed Wind Gust Humidity Rainfall Rate (Hourly) solar Conditions
-17.8 °C -17.8 °C 0 hPa Calm     Humidity% 0 mm SolarRadiationWatts/m^2 W/m2 Conditions
00:04 23.9 °C 14.3 °C 1011.1 hPa SSW 19.5 km/h 24.1 km/h 55% 0 mm 0.00 W/m2
00:08 23.9 °C 14.3 °C 1011.1 hPa SSW 14.3 km/h 16.1 km/h 55% 0 mm 0.00 W/m2
00:14 23.8 °C 14.2 °C 1011.1 hPa SSW 14.3 km/h 17.7 km/h 55% 0 mm 0.00 W/m2
00:18 23.8 °C 14.5 °C 1010.7 hPa SSW 14.3 km/h 19.3 km/h 56% 0 mm 0.00 W/m2
00:24 23.7 °C 14.4 °C 1010.7 hPa SSW 14.3 km/h 22.5 km/h 56% 0 mm 0.00 W/m2
00:28 23.7 °C 14.4 °C 1010.7 hPa SSW 17.7 km/h 22.5 km/h 56% 0 mm 0.00 W/m2
00:32 23.6 °C 14.3 °C 1010.7 hPa SSW 14.3 km/h 22.5 km/h 56% 0 mm 0.00 W/m2
00:39 23.4 °C 14.1 °C 1010.7 hPa SSW 17.7 km/h 20.9 km/h 56% 0 mm 0.00 W/m2
00:43 23.4 °C 14.1 °C 1010.7 hPa SSW 17.7 km/h 20.9 km/h 56% 0 mm 0.00 W/m2
00:49 23.3 °C 14.3 °C 1010.7 hPa SSW 19.5 km/h 20.9 km/h 57% 0 mm 0.00 W/m2
00:53 23.3 °C 14.3 °C 1010.7 hPa SSW 17.7 km/h 20.9 km/h 57% 0 mm 0.00 W/m2
00:59 23.3 °C 14.3 °C 1010.7 hPa SSW 19.5 km/h 24.1 km/h 57% 0 mm 0.00 W/m2
01:03 23.2 °C 14.2 °C 1010.7 hPa SSW 20.9 km/h 25.7 km/h 57% 0 mm 0.00 W/m2
01:09 23.2 °C 14.2 °C 1010.7 hPa SSW 27.4 km/h 29 km/h 57% 0 mm 0.00 W/m2
01:13 23.2 °C 14.2 °C 1010.7 hPa SSW 22.7 km/h 27.4 km/h 57% 0 mm 0.00 W/m2
01:18 23.2 °C 14.2 °C 1010.7 hPa SSW 25.9 km/h 27.4 km/h 57% 0 mm 0.00 W/m2
01:24 23 °C 14 °C 1010.7 hPa SSW 22.7 km/h 25.7 km/h 57% 0 mm 0.00 W/m2
01:28 22.9 °C 14.2 °C 1010.7 hPa SSW 24.1 km/h 27.4 km/h 58% 0 mm 0.00 W/m2
01:34 22.8 °C 14.1 °C 1010.7 hPa SSW 19.5 km/h 27.4 km/h 58% 0 mm 0.00 W/m2
01:38 22.8 °C 14.1 °C 1010.7 hPa SSW 24.1 km/h 27.4 km/h 58% 0 mm 0.00 W/m2
01:44 22.7 °C 14 °C 1010.7 hPa SSW 22.7 km/h 25.7 km/h 58% 0 mm 0.00 W/m2
01:48 22.7 °C 14 °C 1010.7 hPa SSW 17.7 km/h 25.7 km/h 58% 0 mm 0.00 W/m2
01:54 22.7 °C 14 °C 1010.7 hPa SSW 27.4 km/h 27.4 km/h 58% 0 mm 0.00 W/m2
01:58 22.6 °C 13.9 °C 1010.7 hPa SSW 16.3 km/h 20.9 km/h 58% 0 mm 0.00 W/m2
02:04 22.5 °C 13.8 °C 1010.7 hPa SSW 16.3 km/h 22.5 km/h 58% 0 mm 0.00 W/m2
02:08 22.4 °C 14 °C 1010.7 hPa SSW 20.9 km/h 24.1 km/h 59% 0 mm 0.00 W/m2
02:14 22.4 °C 13.7 °C 1010.7 hPa SSW 20.9 km/h 25.7 km/h 58% 0 mm 0.00 W/m2
02:19 22.4 °C 13.7 °C 1010.4 hPa SSW 20.9 km/h 27.4 km/h 58% 0 mm 0.00 W/m2
02:23 22.4 °C 13.7 °C 1010.4 hPa SSW 24.1 km/h 24.1 km/h 58% 0 mm 0.00 W/m2
02:29 22.3 °C 13.6 °C 1010.4 hPa SSW 20.9 km/h 22.5 km/h 58% 0 mm 0.00 W/m2
02:33 22.2 °C 13.8 °C 1010.4 hPa SSW 17.7 km/h 20.9 km/h 59% 0 mm 0.00 W/m2
02:39 22.1 °C 13.7 °C 1010.4 hPa SSW 19.5 km/h 22.5 km/h 59% 0 mm 0.00 W/m2
02:43 22.1 °C 13.7 °C 1010.4 hPa SSW 19.5 km/h 20.9 km/h 59% 0 mm 0.00 W/m2
02:49 22 °C 13.6 °C 1010.4 hPa SSW 17.7 km/h 20.9 km/h 59% 0 mm 0.00 W/m2
02:53 22 °C 13.6 °C 1010.4 hPa SSW 17.7 km/h 20.9 km/h 59% 0 mm 0.00 W/m2
02:58 21.9 °C 13.8 °C 1010 hPa SSW 14.3 km/h 20.9 km/h 60% 0 mm 0.00 W/m2
03:04 21.8 °C 13.7 °C 1010 hPa SSW 19.5 km/h 20.9 km/h 60% 0 mm 0.00 W/m2
03:08 21.7 °C 13.6 °C 1010 hPa SSW 16.3 km/h 20.9 km/h 60% 0 mm 0.00 W/m2
03:14 21.6 °C 13.8 °C 1010 hPa SSW 16.3 km/h 19.3 km/h 61% 0 mm 0.00 W/m2
03:18 21.4 °C 13.8 °C 1010 hPa SSW 17.7 km/h 19.3 km/h 62% 0 mm 0.00 W/m2
03:24 21.5 °C 13.7 °C 1010 hPa SSW 13 km/h 20.9 km/h 61% 0 mm 0.00 W/m2
03:28 21.4 °C 13.6 °C 1010 hPa SSW 11.1 km/h 17.7 km/h 61% 0 mm 0.00 W/m2
03:34 21.3 °C 13.7 °C 1010 hPa SSW 13 km/h 16.1 km/h 62% 0 mm 0.00 W/m2
03:38 21.3 °C 13.7 °C 1010 hPa SSW 9.7 km/h 16.1 km/h 62% 0 mm 0.00 W/m2
03:44 21.2 °C 13.6 °C 1010 hPa SSW 4.7 km/h 8 km/h 62% 0 mm 0.00 W/m2
03:49 21.1 °C 13.8 °C 1010 hPa SSW 6.4 km/h 8 km/h 63% 0 mm 0.00 W/m2
03:53 21.1 °C 13.8 °C 1010 hPa SSW 7.9 km/h 9.7 km/h 63% 0 mm 0.00 W/m2
03:59 20.8 °C 13.7 °C 1010 hPa SSW 11.1 km/h 14.5 km/h 64% 0 mm 0.00 W/m2
Canyon Roadhouse, Fishriver Canyon, Namibia
Compliments of Weather Underground - 1.75 mb